createdAt,value
2022-10-09T00:01:07.473Z,1.60
2022-10-09T00:04:20.376Z,3.00
2022-10-09T00:07:25.594Z,2.00
2022-10-09T00:10:30.485Z,1.25
2022-10-09T00:13:35.736Z,1.38
2022-10-09T00:16:40.626Z,1.50
2022-10-09T00:19:48.466Z,1.05
2022-10-09T00:22:53.330Z,0.95
2022-10-09T00:25:59.835Z,1.13
2022-10-09T00:29:04.998Z,1.83
2022-10-09T00:32:10.214Z,1.58
2022-10-09T00:35:17.762Z,1.23
2022-10-09T00:38:23.058Z,1.40
2022-10-09T00:41:29.247Z,0.80
2022-10-09T00:44:51.699Z,0.73
2022-10-09T00:47:58.911Z,1.63
2022-10-09T00:51:06.830Z,0.90
2022-10-09T00:54:14.729Z,0.88
2022-10-09T00:57:19.949Z,0.70
2022-10-09T01:00:24.937Z,0.90
2022-10-09T01:03:30.201Z,1.00
2022-10-09T01:06:47.444Z,1.45
2022-10-09T01:09:58.639Z,1.15
2022-10-09T01:13:07.217Z,1.77
2022-10-09T01:16:14.473Z,1.00
2022-10-09T01:19:25.646Z,1.50
2022-10-09T01:22:43.038Z,1.20
2022-10-09T01:25:52.101Z,1.55
2022-10-09T01:29:01.042Z,1.20
2022-10-09T01:32:06.749Z,1.00
2022-10-09T01:35:13.679Z,1.02
2022-10-09T01:38:19.514Z,0.90
2022-10-09T01:41:24.779Z,1.13
2022-10-09T01:44:33.348Z,1.13
2022-10-09T01:47:39.963Z,1.42
2022-10-09T01:50:47.011Z,1.25
2022-10-09T01:53:56.590Z,1.63
2022-10-09T01:57:02.427Z,1.10
2022-10-09T02:00:12.423Z,1.13
2022-10-09T02:03:18.370Z,1.00
2022-10-09T02:06:23.711Z,1.00
2022-10-09T02:09:28.631Z,1.75
2022-10-09T02:12:36.011Z,1.00
2022-10-09T02:15:45.584Z,0.93
2022-10-09T02:18:53.690Z,0.80
2022-10-09T02:21:59.845Z,0.98
2022-10-09T02:25:07.953Z,1.02
2022-10-09T02:28:12.825Z,0.95
2022-10-09T02:31:23.720Z,1.20
2022-10-09T02:34:28.751Z,0.95
2022-10-09T02:37:34.060Z,0.70
2022-10-09T02:40:38.954Z,1.50
2022-10-09T02:43:44.224Z,1.27
2022-10-09T02:46:51.857Z,1.48
2022-10-09T02:49:57.102Z,1.00
2022-10-09T02:53:02.002Z,2.20
2022-10-09T02:56:07.268Z,1.02
2022-10-09T02:59:12.269Z,1.05
2022-10-09T03:02:20.137Z,1.67
2022-10-09T03:05:25.152Z,1.17
2022-10-09T03:08:31.391Z,0.75
2022-10-09T03:11:36.274Z,0.90
2022-10-09T03:14:41.535Z,1.20
2022-10-09T03:17:49.008Z,1.30
2022-10-09T03:20:55.378Z,1.15
2022-10-09T03:24:00.258Z,1.38
2022-10-09T03:27:05.445Z,1.40
2022-10-09T03:30:13.103Z,0.90
2022-10-09T03:33:22.456Z,0.95
2022-10-09T03:36:28.590Z,1.13
2022-10-09T03:39:35.029Z,1.20
2022-10-09T03:42:40.925Z,0.93
2022-10-09T03:45:46.424Z,1.08
2022-10-09T03:48:53.930Z,0.90
2022-10-09T03:51:59.117Z,0.90
2022-10-09T03:55:04.010Z,1.00
2022-10-09T03:58:09.392Z,1.23
2022-10-09T04:01:15.576Z,1.40
2022-10-09T04:04:24.585Z,0.80
2022-10-09T04:07:30.579Z,1.20
2022-10-09T04:10:35.808Z,0.90
2022-10-09T04:13:40.800Z,1.02
2022-10-09T04:16:47.500Z,1.15
2022-10-09T04:19:55.185Z,1.00
2022-10-09T04:23:00.401Z,1.17
2022-10-09T04:26:05.359Z,1.67
2022-10-09T04:29:10.980Z,1.10
2022-10-09T04:32:17.134Z,1.10
2022-10-09T04:35:26.146Z,1.10
2022-10-09T04:38:31.020Z,1.38
2022-10-09T04:41:38.422Z,1.20
2022-10-09T04:44:43.515Z,1.02
2022-10-09T04:47:49.062Z,1.02
2022-10-09T04:50:56.920Z,1.60
2022-10-09T04:54:03.139Z,1.95
2022-10-09T04:57:16.177Z,1.88
2022-10-09T05:00:21.840Z,2.35
2022-10-09T05:03:26.873Z,1.52
2022-10-09T05:06:34.669Z,1.67
2022-10-09T05:09:39.559Z,1.27
2022-10-09T05:12:45.154Z,1.23
2022-10-09T05:15:50.035Z,1.33
2022-10-09T05:18:57.120Z,0.90
2022-10-09T05:22:05.494Z,0.70
2022-10-09T05:25:12.469Z,1.38
2022-10-09T05:28:18.544Z,0.75
2022-10-09T05:31:26.147Z,1.35
2022-10-09T05:34:32.231Z,0.98
2022-10-09T05:37:40.066Z,0.90
2022-10-09T05:40:52.645Z,1.00
2022-10-09T05:43:58.090Z,0.70
2022-10-09T05:47:02.984Z,0.75
2022-10-09T05:50:10.754Z,1.33
2022-10-09T05:53:19.402Z,1.60
2022-10-09T05:56:33.263Z,1.73
2022-10-09T05:59:39.217Z,1.73
2022-10-09T06:02:46.034Z,1.75
2022-10-09T06:05:51.106Z,1.63
2022-10-09T06:08:59.323Z,1.60
2022-10-09T06:12:04.421Z,1.17
2022-10-09T06:15:10.386Z,1.58
2022-10-09T06:18:15.299Z,1.80
2022-10-09T06:21:23.127Z,1.67
2022-10-09T06:24:30.646Z,1.63
2022-10-09T06:27:39.094Z,1.73
2022-10-09T06:30:44.383Z,1.40
2022-10-09T06:33:50.358Z,1.88
2022-10-09T06:36:55.207Z,1.52
2022-10-09T06:40:03.240Z,1.70
2022-10-09T06:43:08.475Z,1.80
2022-10-09T06:46:14.918Z,1.65
2022-10-09T06:49:20.085Z,1.83
2022-10-09T06:52:25.291Z,1.75
2022-10-09T06:55:33.511Z,1.90
2022-10-09T06:58:38.945Z,1.67
2022-10-09T07:01:43.923Z,1.25
2022-10-09T07:04:50.071Z,1.42
2022-10-09T07:07:55.042Z,1.42
2022-10-09T07:11:03.527Z,1.42
2022-10-09T07:14:09.485Z,1.67
2022-10-09T07:17:14.674Z,1.50
2022-10-09T07:20:19.727Z,1.90
2022-10-09T07:23:25.530Z,1.85
2022-10-09T07:26:36.979Z,1.80
2022-10-09T07:29:44.573Z,1.50
2022-10-09T07:32:52.432Z,1.80
2022-10-09T07:35:58.829Z,2.17
2022-10-09T07:39:03.826Z,2.05
2022-10-09T07:42:11.667Z,1.70
2022-10-09T07:45:17.935Z,1.83
2022-10-09T07:48:23.162Z,1.70
2022-10-09T07:51:29.678Z,2.03
2022-10-09T07:54:35.186Z,1.70
2022-10-09T07:57:42.686Z,2.30
2022-10-09T08:00:48.429Z,1.90
2022-10-09T08:03:53.899Z,1.85
2022-10-09T08:07:00.493Z,1.73
2022-10-09T08:10:05.929Z,1.63
2022-10-09T08:13:15.328Z,2.08
2022-10-09T08:16:22.994Z,1.80
2022-10-09T08:19:28.590Z,1.85
2022-10-09T08:22:38.862Z,1.60
2022-10-09T08:25:44.162Z,1.40
2022-10-09T08:28:56.219Z,1.30
2022-10-09T08:32:07.452Z,1.60
2022-10-09T08:35:13.403Z,1.35
2022-10-09T08:38:44.939Z,1.80
2022-10-09T08:41:46.387Z,1.50
2022-10-09T08:44:55.186Z,1.38
2022-10-09T08:48:03.914Z,1.40
2022-10-09T08:51:10.449Z,1.67
2022-10-09T08:54:18.652Z,1.50
2022-10-09T08:57:25.028Z,1.25
2022-10-09T09:00:40.232Z,1.48
2022-10-09T09:04:00.843Z,2.03
2022-10-09T09:07:10.698Z,1.50
2022-10-09T09:10:20.473Z,2.38
2022-10-09T09:13:38.165Z,1.77
2022-10-09T09:16:52.410Z,1.52
2022-10-09T09:20:04.733Z,1.67
2022-10-09T09:23:16.639Z,1.58
2022-10-09T09:26:24.857Z,1.80
2022-10-09T09:29:30.255Z,1.30
2022-10-09T09:32:37.874Z,1.25
2022-10-09T09:35:51.519Z,1.50
2022-10-09T09:42:23.730Z,1.50
2022-10-09T09:45:29.403Z,1.77
2022-10-09T09:48:38.767Z,1.52
2022-10-09T09:51:44.870Z,1.60
2022-10-09T09:54:51.626Z,1.40
2022-10-09T09:58:03.544Z,1.48
2022-10-09T10:01:09.581Z,2.25
2022-10-09T10:04:28.253Z,1.40
2022-10-09T10:07:34.285Z,1.00
2022-10-09T10:10:39.932Z,1.35
2022-10-09T10:13:50.221Z,1.55
2022-10-09T10:16:58.437Z,1.38
2022-10-09T10:20:08.742Z,1.70
2022-10-09T10:23:23.647Z,1.50
2022-10-09T10:26:33.027Z,1.17
2022-10-09T10:29:39.510Z,1.10
2022-10-09T10:32:52.005Z,1.30
2022-10-09T10:36:01.464Z,1.67
2022-10-09T10:39:12.020Z,1.60
2022-10-09T10:42:20.959Z,1.20
2022-10-09T10:45:30.213Z,1.67
2022-10-09T10:48:37.269Z,1.27
2022-10-09T10:52:00.972Z,1.65
2022-10-09T10:55:12.193Z,1.75
2022-10-09T10:58:26.072Z,1.73
2022-10-09T11:01:36.170Z,1.40
2022-10-09T11:04:46.299Z,1.30
2022-10-09T11:08:09.327Z,1.20
2022-10-09T11:11:50.063Z,1.70
2022-10-09T11:16:07.323Z,1.52
2022-10-09T11:19:45.250Z,1.70
2022-10-09T11:22:58.815Z,1.75
2022-10-09T11:26:09.701Z,1.50
2022-10-09T11:29:18.952Z,1.60
2022-10-09T11:32:28.353Z,1.73
2022-10-09T11:35:49.272Z,2.08
2022-10-09T11:39:01.051Z,1.48
2022-10-09T11:42:06.628Z,1.60
2022-10-09T11:45:21.348Z,1.27
2022-10-09T11:48:35.639Z,1.33
2022-10-09T11:51:51.075Z,1.20
2022-10-09T11:55:09.998Z,1.40
2022-10-09T11:58:27.097Z,2.08
2022-10-09T12:01:34.455Z,1.38
2022-10-09T12:04:54.612Z,1.50
2022-10-09T12:08:08.971Z,1.73
2022-10-09T12:11:27.720Z,2.03
2022-10-09T12:14:33.018Z,1.75
2022-10-09T12:17:49.939Z,1.70
2022-10-09T12:20:56.436Z,1.88
2022-10-09T12:24:01.655Z,1.60
2022-10-09T12:27:09.810Z,1.70
2022-10-09T12:30:20.961Z,1.45
2022-10-09T12:33:27.564Z,1.90
2022-10-09T12:36:34.340Z,1.45
2022-10-09T12:39:39.856Z,1.80
2022-10-09T12:42:48.481Z,1.85
2022-10-09T12:46:06.144Z,1.65
2022-10-09T12:49:19.699Z,1.38
2022-10-09T12:52:24.590Z,1.65
2022-10-09T12:55:31.594Z,1.70
2022-10-09T12:58:44.254Z,1.63
2022-10-09T13:01:51.934Z,1.65
2022-10-09T13:05:03.814Z,1.15
2022-10-09T13:08:23.940Z,1.88
2022-10-09T13:11:35.223Z,1.90
2022-10-09T13:14:47.957Z,1.43
2022-10-09T13:17:53.406Z,1.40
2022-10-09T13:21:06.780Z,1.55
2022-10-09T13:24:13.413Z,1.70
2022-10-09T13:27:19.688Z,1.67
2022-10-09T13:30:28.459Z,1.52
2022-10-09T13:33:40.658Z,1.50
2022-10-09T13:36:45.594Z,1.55
2022-10-09T13:39:51.102Z,1.52
2022-10-09T13:42:57.417Z,1.45
2022-10-09T13:46:06.752Z,1.60
2022-10-09T13:49:11.863Z,1.10
2022-10-09T13:52:26.031Z,1.17
2022-10-09T13:55:31.179Z,1.20
2022-10-09T13:58:45.051Z,1.50
2022-10-09T14:01:52.937Z,1.23
2022-10-09T14:04:58.679Z,1.20
2022-10-09T14:08:06.590Z,1.40
2022-10-09T14:11:12.667Z,1.23
2022-10-09T14:14:19.999Z,1.38
2022-10-09T14:17:28.030Z,1.35
2022-10-09T14:20:35.410Z,1.15
2022-10-09T14:23:40.843Z,2.20
2022-10-09T14:26:51.798Z,2.33
2022-10-09T14:33:05.553Z,1.55
2022-10-09T14:36:11.547Z,0.90
2022-10-09T14:39:16.877Z,1.17
2022-10-09T14:42:22.123Z,1.55
2022-10-09T14:45:29.089Z,1.23
2022-10-09T14:48:37.889Z,1.20
2022-10-09T14:51:43.546Z,1.30
2022-10-09T14:54:51.708Z,1.15
2022-10-09T14:57:56.929Z,1.10
2022-10-09T15:01:05.860Z,1.25
2022-10-09T15:04:15.386Z,1.40
2022-10-09T15:07:20.617Z,1.50
2022-10-09T15:10:25.619Z,1.30
2022-10-09T15:13:35.213Z,1.65
2022-10-09T15:16:42.007Z,1.27
2022-10-09T15:19:49.978Z,1.48
2022-10-09T15:22:55.214Z,1.35
2022-10-09T15:26:01.178Z,2.15
2022-10-09T15:29:06.901Z,1.35
2022-10-09T15:32:12.518Z,1.25
2022-10-09T15:35:20.182Z,2.13
2022-10-09T15:38:27.820Z,1.33
2022-10-09T15:41:33.770Z,1.35
2022-10-09T15:44:41.166Z,1.52
2022-10-09T15:47:51.402Z,1.10
2022-10-09T15:50:59.643Z,1.08
2022-10-09T15:54:07.152Z,1.10
2022-10-09T15:57:14.946Z,0.80
2022-10-09T16:00:20.381Z,1.08
2022-10-09T16:03:26.186Z,1.33
2022-10-09T16:06:34.338Z,1.38
2022-10-09T16:09:40.424Z,1.42
2022-10-09T16:12:45.861Z,0.95
2022-10-09T16:15:51.722Z,1.40
2022-10-09T16:18:57.834Z,1.30
2022-10-09T16:22:05.952Z,1.20
2022-10-09T16:25:11.280Z,1.20
2022-10-09T16:28:18.822Z,1.02
2022-10-09T16:31:24.830Z,1.98
2022-10-09T16:34:30.533Z,1.33
2022-10-09T16:37:40.632Z,1.35
2022-10-09T16:41:01.517Z,0.90
2022-10-09T16:44:15.404Z,1.20
2022-10-09T16:47:20.963Z,1.08
2022-10-09T16:50:32.591Z,1.50
2022-10-09T16:53:45.312Z,1.40
2022-10-09T16:56:50.589Z,1.55
2022-10-09T16:59:55.936Z,1.40
2022-10-09T17:03:14.302Z,1.30
2022-10-09T17:06:23.889Z,1.25
2022-10-09T17:09:33.650Z,1.40
2022-10-09T17:12:40.178Z,1.75
2022-10-09T17:15:46.901Z,0.90
2022-10-09T17:18:54.148Z,1.30
2022-10-09T17:21:59.140Z,1.67
2022-10-09T17:25:09.455Z,1.35
2022-10-09T17:28:14.468Z,1.30
2022-10-09T17:31:21.456Z,1.15
2022-10-09T17:34:28.609Z,1.00
2022-10-09T17:37:34.254Z,1.90
2022-10-09T17:40:44.858Z,1.65
2022-10-09T17:43:50.355Z,1.10
2022-10-09T17:47:00.985Z,1.10
2022-10-09T17:50:06.961Z,1.25
2022-10-09T17:53:12.031Z,1.30
2022-10-09T17:56:21.812Z,1.83
2022-10-09T17:59:26.921Z,1.70
2022-10-09T18:02:32.220Z,1.73
2022-10-09T18:05:42.595Z,1.98
2022-10-09T18:08:52.899Z,1.77
2022-10-09T18:12:00.492Z,1.60
2022-10-09T18:15:07.236Z,1.20
2022-10-09T18:18:12.783Z,1.20
2022-10-09T18:21:20.661Z,1.33
2022-10-09T18:24:25.671Z,2.95
2022-10-09T18:27:34.806Z,1.48
2022-10-09T18:30:43.129Z,1.70
2022-10-09T18:33:48.974Z,1.92
2022-10-09T18:36:58.656Z,2.20
2022-10-09T18:40:04.368Z,1.88
2022-10-09T18:43:12.467Z,1.70
2022-10-09T18:46:19.007Z,1.67
2022-10-09T18:49:31.084Z,2.00
2022-10-09T18:52:39.421Z,1.70
2022-10-09T18:55:45.739Z,2.10
2022-10-09T18:58:55.520Z,2.47
2022-10-09T19:02:00.514Z,1.90
2022-10-09T19:05:05.773Z,2.00
2022-10-09T19:08:10.773Z,2.30
2022-10-09T19:11:17.177Z,2.05
2022-10-09T19:14:24.952Z,2.55
2022-10-09T19:17:32.814Z,2.10
2022-10-09T19:20:41.442Z,2.30
2022-10-09T19:23:49.385Z,2.60
2022-10-09T19:26:58.518Z,2.78
2022-10-09T19:30:26.114Z,2.50
2022-10-09T19:33:40.613Z,2.38
2022-10-09T19:36:51.954Z,2.78
2022-10-09T19:39:56.984Z,2.38
2022-10-09T19:43:03.839Z,2.88
2022-10-09T19:46:09.859Z,2.72
2022-10-09T19:49:24.485Z,2.78
2022-10-09T19:52:32.526Z,2.50
2022-10-09T19:55:37.906Z,2.83
2022-10-09T19:58:43.613Z,3.25
2022-10-09T20:01:48.813Z,2.83
2022-10-09T20:04:56.366Z,2.63
2022-10-09T20:08:01.738Z,3.17
2022-10-09T20:11:07.633Z,3.03
2022-10-09T20:14:14.059Z,2.78
2022-10-09T20:17:20.970Z,2.90
2022-10-09T20:20:30.085Z,2.83
2022-10-09T20:23:35.105Z,2.95
2022-10-09T20:26:43.377Z,3.00
2022-10-09T20:29:48.373Z,3.00
2022-10-09T20:32:58.778Z,2.83
2022-10-09T20:36:06.987Z,3.13
2022-10-09T20:39:14.120Z,3.20
2022-10-09T20:42:26.735Z,3.53
2022-10-09T20:45:35.313Z,3.13
2022-10-09T20:48:40.195Z,3.10
2022-10-09T20:51:48.771Z,2.67
2022-10-09T20:54:54.011Z,3.15
2022-10-09T20:58:01.221Z,3.17
2022-10-09T21:01:07.363Z,4.32
2022-10-09T21:04:13.017Z,3.75
2022-10-09T21:07:23.253Z,3.45
2022-10-09T21:10:32.030Z,3.92
2022-10-09T21:13:37.274Z,3.70
2022-10-09T21:16:43.178Z,3.55
2022-10-09T21:19:51.565Z,3.30
2022-10-09T21:23:05.577Z,3.38
2022-10-09T21:26:14.467Z,3.53
2022-10-09T21:29:20.728Z,3.75
2022-10-09T21:32:25.625Z,3.50
2022-10-09T21:35:31.280Z,3.47
2022-10-09T21:38:39.363Z,3.42
2022-10-09T21:41:45.991Z,3.20
2022-10-09T21:44:53.105Z,3.47
2022-10-09T21:47:58.769Z,3.08
2022-10-09T21:51:04.224Z,3.47
2022-10-09T21:54:12.309Z,3.03
2022-10-09T21:57:20.156Z,3.10
2022-10-09T22:00:25.695Z,3.35
2022-10-09T22:03:31.939Z,2.80
2022-10-09T22:06:37.553Z,2.72
2022-10-09T22:09:45.824Z,2.80
2022-10-09T22:12:52.963Z,3.22
2022-10-09T22:16:07.230Z,2.60
2022-10-09T22:19:19.573Z,2.65
2022-10-09T22:22:26.685Z,2.50
2022-10-09T22:25:35.873Z,2.45
2022-10-09T22:28:59.604Z,2.63
2022-10-09T22:32:24.557Z,2.65
2022-10-09T22:35:43.554Z,2.92
2022-10-09T22:38:57.015Z,2.75
2022-10-09T22:42:04.663Z,2.42
2022-10-09T22:45:20.296Z,2.53
2022-10-09T22:48:26.294Z,2.50
2022-10-09T22:51:33.345Z,3.17
2022-10-09T22:54:40.659Z,2.72
2022-10-09T22:57:49.566Z,2.60
2022-10-09T23:00:56.963Z,2.97
2022-10-09T23:04:08.503Z,2.45
2022-10-09T23:07:17.649Z,2.58
2022-10-09T23:10:24.043Z,2.72
2022-10-09T23:13:38.099Z,2.25
2022-10-09T23:17:09.649Z,2.40
2022-10-09T23:20:17.191Z,2.47
2022-10-09T23:23:22.489Z,2.45
2022-10-09T23:26:28.644Z,2.80
2022-10-09T23:29:37.913Z,3.38
2022-10-09T23:32:45.776Z,2.50
2022-10-09T23:35:56.195Z,2.47
2022-10-09T23:39:02.679Z,2.47
2022-10-09T23:42:13.743Z,3.30
2022-10-09T23:45:33.592Z,2.97
2022-10-09T23:48:40.066Z,2.58
2022-10-09T23:51:47.956Z,2.85
2022-10-09T23:54:54.538Z,2.70
2022-10-09T23:57:59.483Z,2.38
